| time (UTC) | temp F | wind direction | speed knots | gust knots | rain 1hr in | rain 24hr in | rain mn in | humidity % | barometer mb |
| 20260906194501 | 103 | 30 | 0.0 | 1.7 | 0.00 | 0.00 | 0.00 | 28 | 1012.5 |
| 20260906193001 | 104 | 223 | 1.7 | 3.5 | 0.00 | 0.00 | 0.00 | 28 | 1013.6 |
| 20260906191502 | 103 | 159 | 7.0 | 7.0 | 0.00 | 0.00 | 0.00 | 29 | 1013.6 |
| 20260906190001 | 104 | 173 | 1.7 | 5.2 | 0.00 | 0.00 | 0.00 | 28 | 1013.6 |
| 20260906184501 | 104 | 161 | 5.2 | 7.0 | 0.00 | 0.00 | 0.00 | 28 | 1013.6 |
| 20260906183002 | 105 | 242 | 3.5 | 3.5 | 0.00 | 0.00 | 0.00 | 28 | 1013.6 |
| 20260906181501 | 104 | 333 | 3.5 | 3.5 | 0.00 | 0.00 | 0.00 | 29 | 1013.6 |
| 20260906180001 | 102 | 250 | 1.7 | 1.7 | 0.00 | 0.00 | 0.00 | 32 | 1014.6 |
| 20260906174502 | 102 | 23 | 0.0 | 1.7 | 0.00 | 0.00 | 0.00 | 31 | 1014.6 |
| 20260906173001 | 103 | 204 | 3.5 | 5.2 | 0.00 | 0.00 | 0.00 | 31 | 1015.6 |
| 20260906171501 | 102 | 162 | 3.5 | 3.5 | 0.00 | 0.00 | 0.00 | 32 | 1015.6 |
| 20260906170001 | 102 | 188 | 3.5 | 3.5 | 0.00 | 0.00 | 0.00 | 33 | 1015.6 |
| 20260906164501 | 101 | 143 | 1.7 | 1.7 | 0.00 | 0.00 | 0.00 | 35 | 1015.6 |
| 20260906163002 | 98 | 310 | 3.5 | 5.2 | 0.00 | 0.00 | 0.00 | 39 | 1015.6 |
| 20260906161502 | 97 | 176 | 0.0 | 1.7 | 0.00 | 0.00 | 0.00 | 41 | 1015.6 |
| 20260906160001 | 96 | 169 | 1.7 | 1.7 | 0.00 | 0.00 | 0.00 | 42 | 1015.6 |
| 20260906154501 | 96 | 328 | 3.5 | 3.5 | 0.00 | 0.00 | 0.00 | 42 | 1015.6 |
| 20260906153002 | 93 | 70 | 0.0 | 1.7 | 0.00 | 0.00 | 0.00 | 47 | 1015.6 |
| 20260906151502 | 92 | 350 | 1.7 | 1.7 | 0.00 | 0.00 | 0.00 | 47 | 1015.6 |
| 20260906150001 | 91 | 195 | 0.0 | 0.0 | 0.00 | 0.00 | 0.00 | 47 | 1015.6 |
| 20260906144502 | 89 | 229 | 5.2 | 5.2 | 0.00 | 0.00 | 0.00 | 50 | 1015.6 |
| 20260906143001 | 90 | 140 | 1.7 | 1.7 | 0.00 | 0.00 | 0.00 | 52 | 1015.6 |
| 20260906141502 | 85 | 224 | 0.0 | 0.0 | 0.00 | 0.00 | 0.00 | 59 | 1015.6 |
| 20260906140002 | 84 | 222 | 0.0 | 1.7 | 0.00 | 0.00 | 0.00 | 62 | 1015.6 |
| 20260906134501 | 82 | 221 | 3.5 | 3.5 | 0.00 | 0.00 | 0.00 | 66 | 1015.6 |
| 20260906133001 | 79 | 189 | 1.7 | 3.5 | 0.00 | 0.00 | 0.00 | 72 | 1015.6 |
| 20260906131501 | 76 | 125 | 3.5 | 3.5 | 0.00 | 0.00 | 0.00 | 77 | 1015.6 |
| 20260906130002 | 75 | 284 | 0.0 | 0.0 | 0.00 | 0.00 | 0.00 | 79 | 1015.6 |
| 20260906124503 | 73 | 260 | 1.7 | 1.7 | 0.00 | 0.00 | 0.00 | 82 | 1014.6 |
| 20260906123001 | 73 | 87 | 1.7 | 1.7 | 0.00 | 0.00 | 0.00 | 83 | 1014.6 |
| 20260906121502 | 74 | 168 | 1.7 | 3.5 | 0.00 | 0.00 | 0.00 | 83 | 1014.6 |
| 20260906120002 | 74 | 303 | 0.0 | 1.7 | 0.00 | 0.00 | 0.00 | 82 | 1014.6 |
| 20260906114501 | 74 | 276 | 0.0 | 0.0 | 0.00 | 0.00 | 0.00 | 81 | 1014.6 |
| 20260906113002 | 74 | 88 | 1.7 | 1.7 | 0.00 | 0.00 | 0.00 | 80 | 1014.6 |
| 20260906111502 | 75 | 293 | 1.7 | 3.5 | 0.00 | 0.00 | 0.00 | 79 | 1014.6 |
| 20260906110002 | 75 | 116 | 1.7 | 1.7 | 0.00 | 0.00 | 0.00 | 79 | 1014.6 |
| 20260906104501 | 75 | 344 | 0.0 | 1.7 | 0.00 | 0.00 | 0.00 | 77 | 1013.6 |
| 20260906103002 | 75 | 301 | 0.0 | 1.7 | 0.00 | 0.00 | 0.00 | 79 | 1014.6 |
| 20260906101502 | 75 | 94 | 1.7 | 3.5 | 0.00 | 0.00 | 0.00 | 78 | 1013.6 |
| 20260906100001 | 75 | 303 | 1.7 | 1.7 | 0.00 | 0.00 | 0.00 | 77 | 1014.6 |
| 20260906094501 | 75 | 297 | 3.5 | 3.5 | 0.00 | 0.00 | 0.00 | 77 | 1013.6 |
| 20260906093001 | 76 | 104 | 1.7 | 3.5 | 0.00 | 0.00 | 0.00 | 77 | 1013.6 |
| 20260906091502 | 76 | 252 | 1.7 | 0.0 | 0.00 | 0.00 | 0.00 | 76 | 1013.6 |
| 20260906090002 | 76 | 205 | 1.7 | 1.7 | 0.00 | 0.00 | 0.00 | 76 | 1013.6 |
| 20260906084502 | 76 | 164 | 3.5 | 3.5 | 0.00 | 0.00 | 0.00 | 75 | 1013.6 |
| 20260906083002 | 77 | 212 | 0.0 | 0.0 | 0.00 | 0.00 | 0.00 | 74 | 1013.6 |
| 20260906081501 | 77 | 135 | 0.0 | 0.0 | 0.00 | 0.00 | 0.00 | 73 | 1013.6 |
| 20260906080002 | 77 | 15 | 1.7 | 0.0 | 0.00 | 0.00 | 0.00 | 72 | 1013.6 |
| 20260906074501 | 77 | 224 | 0.0 | 0.0 | 0.00 | 0.00 | 0.00 | 71 | 1013.6 |
| 20260906073001 | 78 | 104 | 0.0 | 0.0 | 0.00 | 0.00 | 0.00 | 71 | 1013.6 |
| 20260906071502 | 78 | 135 | 1.7 | 0.0 | 0.00 | 0.00 | 0.00 | 70 | 1013.6 |
| 20260906070002 | 78 | 157 | 0.0 | 0.0 | 0.00 | 0.00 | 0.00 | 69 | 1013.6 |
| 20260906064502 | 78 | 205 | 0.0 | 0.0 | 0.00 | 0.00 | 0.00 | 69 | 1013.6 |
| 20260906063002 | 78 | 173 | 1.7 | 1.7 | 0.00 | 0.00 | 0.00 | 68 | 1013.6 |
| 20260906061502 | 79 | 169 | 1.7 | 3.5 | 0.00 | 0.00 | 0.00 | 69 | 1013.6 |
| 20260906060002 | 79 | 135 | 0.0 | 0.0 | 0.00 | 0.00 | 0.00 | 67 | 1013.6 |
| 20260906054502 | 79 | 37 | 0.0 | 0.0 | 0.00 | 0.00 | 0.00 | 66 | 1013.6 |
| 20260906053002 | 80 | 37 | 0.0 | 0.0 | 0.00 | 0.00 | 0.00 | 66 | 1013.6 |
| 20260906051502 | 80 | 37 | 0.0 | 0.0 | 0.00 | 0.00 | 0.00 | 65 | 1013.6 |
| 20260906050002 | 80 | 217 | 0.0 | 0.0 | 0.00 | 0.00 | 0.00 | 65 | 1013.6 |
| 20260906044503 | 81 | 217 | 0.0 | 0.0 | 0.00 | 0.00 | 0.00 | 63 | 1013.6 |
| 20260906043002 | 81 | 135 | 0.0 | 0.0 | 0.00 | 0.00 | 0.00 | 63 | 1013.6 |
| 20260906041502 | 81 | 157 | 0.0 | 0.0 | 0.00 | 0.00 | 0.00 | 62 | 1013.6 |
| 20260906040002 | 82 | 217 | 0.0 | 0.0 | 0.00 | 0.00 | 0.00 | 61 | 1013.6 |
| 20260906034502 | 83 | 217 | 0.0 | 0.0 | 0.00 | 0.00 | 0.00 | 60 | 1013.6 |
| 20260906033002 | 83 | 217 | 0.0 | 0.0 | 0.00 | 0.00 | 0.00 | 58 | 1013.6 |
| 20260906031502 | 84 | 29 | 0.0 | 0.0 | 0.00 | 0.00 | 0.00 | 57 | 1013.6 |
| 20260906030002 | 84 | 129 | 0.0 | 0.0 | 0.00 | 0.00 | 0.00 | 56 | 1013.6 |
| 20260906024502 | 85 | 129 | 0.0 | 0.0 | 0.00 | 0.00 | 0.00 | 54 | 1013.6 |
| 20260906023002 | 86 | 50 | 0.0 | 0.0 | 0.00 | 0.00 | 0.00 | 54 | 1012.5 |
| 20260906021502 | 87 | 91 | 1.7 | 0.0 | 0.00 | 0.00 | 0.00 | 54 | 1012.5 |
| 20260906020002 | 87 | 37 | 0.0 | 0.0 | 0.00 | 0.00 | 0.00 | 52 | 1012.5 |
| 20260906014502 | 88 | 166 | 0.0 | 0.0 | 0.00 | 0.00 | 0.00 | 51 | 1012.5 |
| 20260906013003 | 90 | 180 | 0.0 | 0.0 | 0.00 | 0.00 | 0.00 | 49 | 1012.5 |
| 20260906011502 | 92 | 230 | 0.0 | 0.0 | 0.00 | 0.00 | 0.00 | 45 | 1012.5 |
| 20260906010002 | 94 | 230 | 0.0 | 0.0 | 0.00 | 0.00 | 0.00 | 42 | 1012.5 |
| 20260906004502 | 96 | 32 | 0.0 | 0.0 | 0.00 | 0.00 | 0.00 | 36 | 1011.5 |
| 20260906003002 | 97 | 352 | 0.0 | 0.0 | 0.00 | 0.00 | 0.00 | 34 | 1012.5 |
| 20260906001502 | 98 | 317 | 0.0 | 1.7 | 0.00 | 0.00 | 0.00 | 33 | 1012.5 |
| 20260906000001 | 98 | 152 | 0.0 | 1.7 | 0.00 | 0.00 | 0.00 | 33 | 1011.5 |
| 20260905234503 | 99 | 168 | 3.5 | 5.2 | 0.00 | 0.00 | 0.00 | 32 | 1011.5 |
| 20260905233002 | 99 | 190 | 3.5 | 5.2 | 0.00 | 0.00 | 0.00 | 32 | 1011.5 |
| 20260905231502 | 100 | 153 | 7.0 | 9.6 | 0.00 | 0.00 | 0.00 | 31 | 1011.5 |
| 20260905230002 | 100 | 169 | 5.2 | 5.2 | 0.00 | 0.00 | 0.00 | 31 | 1011.5 |
| 20260905224502 | 100 | 193 | 3.5 | 5.2 | 0.00 | 0.00 | 0.00 | 31 | 1011.5 |
| 20260905223001 | 100 | 165 | 11.3 | 11.3 | 0.00 | 0.00 | 0.00 | 31 | 1011.5 |
| 20260905221502 | 100 | 107 | 3.5 | 5.2 | 0.00 | 0.00 | 0.00 | 32 | 1011.5 |
| 20260905220002 | 100 | 134 | 5.2 | 5.2 | 0.00 | 0.00 | 0.00 | 33 | 1011.5 |
| 20260905214502 | 100 | 124 | 3.5 | 3.5 | 0.00 | 0.00 | 0.00 | 33 | 1011.5 |
| 20260905213002 | 100 | 197 | 5.2 | 7.0 | 0.00 | 0.00 | 0.00 | 31 | 1012.5 |
| 20260905211502 | 100 | 119 | 11.3 | 11.3 | 0.00 | 0.00 | 0.00 | 33 | 1013.6 |
| 20260905210002 | 99 | 192 | 5.2 | 5.2 | 0.00 | 0.00 | 0.00 | 34 | 1013.6 |
| 20260905204502 | 100 | 168 | 5.2 | 7.0 | 0.00 | 0.00 | 0.00 | 32 | 1013.6 |
| 20260905203002 | 100 | 231 | 11.3 | 13.0 | 0.00 | 0.00 | 0.00 | 34 | 1013.6 |
| 20260905201501 | 99 | 235 | 1.7 | 3.5 | 0.00 | 0.00 | 0.00 | 34 | 1013.6 |
| 20260905200002 | 100 | 196 | 9.6 | 9.6 | 0.00 | 0.00 | 0.00 | 34 | 1013.6 |